Airfield :
LOGIN :

Register | Disclaimer

   EN    FR    IT 

 










Legend :    VFR   Marginal VFR   IFR   Intensive IFR   Very Intensive IFR
Visi :
Ceiling :
>= 8 km
>= 3000ft
5 to 8 km
1000 to 3000 ft
1500m to 5 km
500 to 1000 ft
800 to 1500m
200 to 500 ft
< 800m
< 200 ft
Symbols :   Thunderstorms  Fog  Heavy snow  Heavy precipitations  Wind > 20 kt
SIGMETs :     Misc.  Thunderstorms  Icing  Turbulence  Mountain Waves  Volcanic Ashes







- Airport Elevation : 390 ft
- IATA code : NQY
- Download approach charts


EGHQ - Newquay

CURRENT METAR :
  • 160820Z 23013KT 9999 BKN009 14/12 Q1014

EXPIRED METARs :
  • 160750Z 22014KT 9999 7000S VCSH BKN010 14/12 Q1014
  • 160720Z 22013KT 9000 -SHRA BKN010 14/12 Q1014
  • 160650Z 21012KT 9999 BKN010 14/12 Q1013
  • 160620Z 22013KT 9999 BKN010 13/12 Q1013
  • 160550Z 22011KT 9999 SCT011 13/12 Q1013

TAF TAF EGHQ
Valid from the 16 at 06:00 until the 16 at 15:00 UTC


160626Z 1606/1615 20009KT 9999 SCT025
TEMPO 1606/1615 20015G25KT 6000 SHRA BKN008
No reported NOTAMs for that airfield.



MET'MAP, your aeronautical weather chart ! - Copyright ORBIFLY December 2007 - Disclaimer

ORBIFLY MET'MAP TEAM :

Programming & Development : Alexandra Zaïnal
Concept & Development : Baudouin d'Aumeries
Co-Development & Prog : Marc-Olivier Méhu
Technical & hardware support : Manuel Goepfert

Contact : metmap@orbifly.com




SOURCES & CREDITS :

   NOAA